Time;durP1;ratioP1;P1;durP2;ratioP2;P2;SDS_P1;SDS_P2;PMS_P1;PMS_P2;Temp;Humidity;BMP_temperature;BMP_pressure;BME280_temperature;BME280_humidity;BME280_pressure;Samples;Min_cycle;Max_cycle;Signal;HPM_P1;HPM_P2
2022/10/16 00:00:08;;;;;;;3.92;1.23;;;;;;;12.57;100.00;95894.13;1028702;28;20029;-71
2022/10/16 00:00:39;;;;;;;1.55;0.65;;;;;;;12.57;100.00;95886.22;1029096;28;20356;-72
2022/10/16 00:01:11;;;;;;;0.98;0.68;;;;;;;12.56;100.00;95882.03;1028664;28;20015;-72
2022/10/16 00:01:42;;;;;;;1.27;0.93;;;;;;;12.61;100.00;95889.88;1023815;29;20083;-72
2022/10/16 00:02:12;;;;;;;0.98;0.70;;;;;;;12.60;100.00;95883.84;1023698;28;20032;-72
2022/10/16 00:02:43;;;;;;;2.72;0.80;;;;;;;12.60;100.00;95885.69;1028198;28;20277;-73
2022/10/16 00:03:13;;;;;;;2.38;0.80;;;;;;;12.57;100.00;95880.97;1028452;28;20030;-72
2022/10/16 00:03:44;;;;;;;0.50;0.50;;;;;;;12.56;100.00;95879.41;1028738;28;20656;-72
2022/10/16 00:04:14;;;;;;;1.02;0.60;;;;;;;12.42;100.00;95861.56;1036564;28;20037;-72
2022/10/16 00:04:45;;;;;;;0.93;0.80;;;;;;;12.57;100.00;95876.47;1036363;28;20049;-72
2022/10/16 00:05:16;;;;;;;1.17;0.70;;;;;;;12.58;100.00;95874.66;1032116;28;20038;-72
2022/10/16 00:05:46;;;;;;;4.38;0.80;;;;;;;12.58;100.00;95879.94;1031921;28;20030;-72
2022/10/16 00:06:18;;;;;;;1.63;0.82;;;;;;;12.56;100.00;95874.13;1032558;28;20030;-73
2022/10/16 00:06:48;;;;;;;4.78;2.67;;;;;;;12.37;100.00;95848.41;1029060;28;20023;-72
2022/10/16 00:07:19;;;;;;;0.60;0.60;;;;;;;12.54;100.00;95881.50;1032035;28;20022;-72
2022/10/16 00:07:49;;;;;;;1.60;0.85;;;;;;;12.55;100.00;95880.47;1032382;28;20031;-72
2022/10/16 00:08:20;;;;;;;0.73;0.73;;;;;;;12.56;100.00;95880.19;1032149;28;20425;-73
2022/10/16 00:08:53;;;;;;;1.25;0.85;;;;;;;12.57;100.00;95875.69;1032531;28;20061;-72
2022/10/16 00:09:23;;;;;;;2.00;0.90;;;;;;;12.58;100.00;95885.19;1029382;28;20034;-71
2022/10/16 00:09:54;;;;;;;1.85;1.20;;;;;;;12.58;100.00;95874.66;1028496;28;20025;-72
2022/10/16 00:10:24;;;;;;;0.65;0.55;;;;;;;12.59;100.00;95877.00;1024400;28;20024;-72
2022/10/16 00:11:06;;;;;;;0.98;0.85;;;;;;;12.60;100.00;95880.44;1024957;28;20031;-72
2022/10/16 00:11:38;;;;;;;0.93;0.70;;;;;;;12.61;100.00;95876.72;1025739;28;20146;-73
2022/10/16 00:12:08;;;;;;;0.85;0.75;;;;;;;12.60;100.00;95877.78;1031751;28;20018;-72
2022/10/16 00:12:38;;;;;;;0.93;0.73;;;;;;;12.59;100.00;95876.22;1038123;28;20030;-73
2022/10/16 00:13:09;;;;;;;3.28;0.80;;;;;;;12.48;100.00;95859.72;1040511;28;20036;-73
2022/10/16 00:13:40;;;;;;;0.93;0.80;;;;;;;12.60;100.00;95877.78;1036255;28;20034;-72
2022/10/16 00:14:12;;;;;;;0.90;0.68;;;;;;;12.59;100.00;95879.66;1028591;28;20019;-72
2022/10/16 00:14:43;;;;;;;0.65;0.50;;;;;;;12.57;100.00;95875.69;1028389;28;20078;-72
2022/10/16 00:15:14;;;;;;;2.70;1.73;;;;;;;12.57;100.00;95873.06;1028157;28;20498;-72
2022/10/16 00:15:46;;;;;;;4.18;1.00;;;;;;;12.60;100.00;95877.78;1027995;28;20110;-72
2022/10/16 00:16:16;;;;;;;2.95;0.80;;;;;;;12.61;100.00;95879.34;1028678;28;20710;-72
2022/10/16 00:16:47;;;;;;;1.65;1.00;;;;;;;12.59;100.00;95881.50;1028445;28;20031;-73
2022/10/16 00:17:17;;;;;;;0.70;0.70;;;;;;;12.58;100.00;95879.94;1034872;28;20041;-72
2022/10/16 00:17:48;;;;;;;0.93;0.80;;;;;;;12.59;100.00;95881.50;1044813;28;20021;-72
2022/10/16 00:18:18;;;;;;;2.28;1.05;;;;;;;12.56;100.00;95876.78;1044577;28;20029;-72
2022/10/16 00:18:49;;;;;;;1.30;0.80;;;;;;;12.58;100.00;95885.19;1044688;28;20425;-72
2022/10/16 00:19:19;;;;;;;0.60;0.60;;;;;;;12.57;100.00;95886.22;1038514;28;20815;-71
2022/10/16 00:19:50;;;;;;;1.67;1.05;;;;;;;12.56;100.00;95874.13;1040604;28;20064;-72
2022/10/16 00:20:20;;;;;;;1.13;0.80;;;;;;;12.56;100.00;95888.06;1045001;28;20029;-72
2022/10/16 00:20:51;;;;;;;4.88;0.82;;;;;;;12.49;100.00;95875.22;1032060;28;20023;-72
2022/10/16 00:21:23;;;;;;;1.08;0.85;;;;;;;12.56;100.00;95882.03;1030854;28;20026;-72
2022/10/16 00:21:54;;;;;;;1.52;0.98;;;;;;;12.58;100.00;95885.19;1032351;28;20020;-72
2022/10/16 00:22:24;;;;;;;1.50;1.13;;;;;;;12.57;100.00;95886.22;1030591;28;20029;-72
2022/10/16 00:22:55;;;;;;;1.00;0.65;;;;;;;12.44;100.00;95854.19;1043444;28;20048;-72
2022/10/16 00:23:25;;;;;;;0.95;0.77;;;;;;;12.43;100.00;95851.81;1042270;28;20040;-72
2022/10/16 00:24:00;;;;;;;1.58;1.10;;;;;;;12.58;100.00;95879.94;1037076;28;20041;-73
2022/10/16 00:24:31;;;;;;;1.25;0.93;;;;;;;12.57;100.00;95873.06;1040420;28;20036;-72
2022/10/16 00:25:01;;;;;;;2.50;1.00;;;;;;;12.59;100.00;95881.50;1036398;28;20037;-72
2022/10/16 00:25:36;;;;;;;1.23;0.77;;;;;;;12.60;100.00;95877.78;1036732;28;20131;-71
2022/10/16 00:26:08;;;;;;;1.88;0.95;;;;;;;12.60;100.00;95878.56;1028765;28;20039;-72
2022/10/16 00:26:39;;;;;;;1.13;0.85;;;;;;;12.56;100.00;95868.88;1036120;28;20755;-73
2022/10/16 00:27:09;;;;;;;1.35;1.00;;;;;;;12.59;100.00;95871.75;1037238;28;20014;-72
2022/10/16 00:27:40;;;;;;;1.92;0.85;;;;;;;12.57;100.00;95878.34;1037854;28;20025;-73
2022/10/16 00:28:10;;;;;;;0.65;0.65;;;;;;;12.55;100.00;95875.97;1041030;28;20033;-73
2022/10/16 00:28:41;;;;;;;0.68;0.68;;;;;;;12.56;100.00;95876.78;1041703;28;20037;-73
2022/10/16 00:29:11;;;;;;;1.00;0.80;;;;;;;12.56;100.00;95872.28;1045408;28;20029;-73
2022/10/16 00:29:42;;;;;;;0.90;0.75;;;;;;;12.57;100.00;95879.13;1041211;28;20017;-73
2022/10/16 00:30:13;;;;;;;1.30;0.90;;;;;;;12.57;100.00;95875.69;1036240;28;20444;-72
2022/10/16 00:30:43;;;;;;;2.58;0.88;;;;;;;12.58;100.00;95875.44;1032369;28;20057;-73
2022/10/16 00:31:14;;;;;;;2.80;0.90;;;;;;;12.43;100.00;95852.59;1024731;28;20023;-72
2022/10/16 00:31:44;;;;;;;1.17;0.75;;;;;;;12.58;100.00;95878.06;1028603;28;20015;-72
2022/10/16 00:32:15;;;;;;;1.30;0.88;;;;;;;12.60;100.00;95877.78;1036486;28;20026;-73
2022/10/16 00:32:45;;;;;;;0.85;0.77;;;;;;;12.59;100.00;95873.59;1035815;28;20108;-72
2022/10/16 00:33:16;;;;;;;1.23;1.00;;;;;;;12.59;100.00;95879.66;1044805;28;20033;-73
2022/10/16 00:33:46;;;;;;;1.48;0.90;;;;;;;12.61;100.00;95874.09;1040424;28;20025;-73
2022/10/16 00:34:17;;;;;;;1.65;0.77;;;;;;;12.61;100.00;95874.09;1040505;28;20022;-72
2022/10/16 00:34:47;;;;;;;1.42;0.60;;;;;;;12.63;100.00;95875.41;1040589;28;20021;-72
2022/10/16 00:35:18;;;;;;;1.20;0.93;;;;;;;12.64;100.00;95876.19;1036328;28;20076;-73
2022/10/16 00:35:48;;;;;;;1.33;0.68;;;;;;;12.58;100.00;95864.91;1039938;28;20029;-72
2022/10/16 00:36:20;;;;;;;1.67;0.80;;;;;;;12.63;100.00;95872.00;1040448;28;20037;-72
2022/10/16 00:36:51;;;;;;;1.65;1.00;;;;;;;12.64;100.00;95877.00;1041095;28;20104;-72
2022/10/16 00:37:21;;;;;;;1.17;0.70;;;;;;;12.64;100.00;95876.19;1036609;28;20884;-72
2022/10/16 00:37:52;;;;;;;4.00;0.70;;;;;;;12.66;100.00;95872.22;1036563;28;20022;-72
2022/10/16 00:38:22;;;;;;;3.53;0.75;;;;;;;12.64;100.00;95877.00;1040213;28;20528;-72
2022/10/16 00:38:54;;;;;;;1.10;0.98;;;;;;;12.56;100.00;95860.97;1036638;28;20029;-73
2022/10/16 00:39:24;;;;;;;3.95;0.82;;;;;;;12.63;100.00;95872.78;1040685;28;20013;-71
2022/10/16 00:39:55;;;;;;;1.75;0.80;;;;;;;12.64;100.00;95873.56;1030679;28;20498;-71
2022/10/16 00:40:28;;;;;;;1.40;0.88;;;;;;;12.63;100.00;95872.00;1032079;28;20019;-72
2022/10/16 00:40:58;;;;;;;1.05;0.75;;;;;;;12.61;100.00;95868.81;1032541;28;20018;-72
2022/10/16 00:41:29;;;;;;;2.58;0.93;;;;;;;12.64;100.00;95870.91;1024417;28;20026;-72
2022/10/16 00:41:59;;;;;;;0.88;0.82;;;;;;;12.62;100.00;95873.84;1024455;29;20519;-73
2022/10/16 00:42:30;;;;;;;0.70;0.65;;;;;;;12.65;100.00;95872.50;1036036;28;20120;-73
2022/10/16 00:43:00;;;;;;;2.53;1.00;;;;;;;12.62;100.00;95873.84;1036401;28;20021;-73
2022/10/16 00:43:38;;;;;;;1.73;0.90;;;;;;;12.58;100.00;95864.91;1032674;28;20026;-73
2022/10/16 00:44:46;;;;;;;0.75;0.68;;;;;;;12.64;100.00;95877.00;1032560;28;20014;-72
2022/10/16 00:45:17;;;;;;;1.90;0.73;;;;;;;12.61;100.00;95866.19;1038770;28;20358;-72
2022/10/16 00:45:47;;;;;;;3.15;0.75;;;;;;;12.63;100.00;95872.00;1029350;28;20031;-72
2022/10/16 00:46:39;;;;;;;0.77;0.65;;;;;;;12.68;100.00;95879.88;1024292;28;20019;-72
2022/10/16 00:47:10;;;;;;;1.20;0.90;;;;;;;12.67;100.00;95875.66;1020501;29;20011;-72
2022/10/16 00:47:45;;;;;;;14.13;1.17;;;;;;;12.67;100.00;95875.66;1027172;28;20019;-72
2022/10/16 00:48:16;;;;;;;1.30;0.90;;;;;;;12.68;100.00;95874.59;1020441;29;20562;-73
2022/10/16 00:49:06;;;;;;;2.13;1.33;;;;;;;12.54;100.00;95857.81;1028531;28;20027;-72
2022/10/16 00:49:37;;;;;;;1.33;1.05;;;;;;;12.64;100.00;95869.09;1026318;28;20445;-72
2022/10/16 00:50:31;;;;;;;3.40;0.80;;;;;;;12.64;100.00;95870.91;1024095;29;20034;-72
2022/10/16 00:51:02;;;;;;;0.95;0.55;;;;;;;12.68;100.00;95877.25;1032329;28;20438;-73
2022/10/16 00:51:37;;;;;;;1.27;0.70;;;;;;;12.67;100.00;95879.06;1028722;28;20257;-72
2022/10/16 00:52:08;;;;;;;3.55;0.60;;;;;;;12.66;100.00;95887.25;1032426;28;20033;-72
2022/10/16 00:52:39;;;;;;;1.05;0.60;;;;;;;12.65;100.00;95877.78;1036016;28;20068;-71
2022/10/16 00:53:10;;;;;;;0.75;0.57;;;;;;;12.59;100.00;95870.97;1032237;28;20017;-72
2022/10/16 00:53:41;;;;;;;1.85;0.80;;;;;;;12.61;100.00;95884.63;1023889;29;20121;-72
2022/10/16 00:54:15;;;;;;;0.70;0.70;;;;;;;12.61;100.00;95882.81;1020208;29;20015;-71
2022/10/16 00:54:46;;;;;;;6.32;0.85;;;;;;;12.64;100.00;95890.16;1026516;28;20023;-72
2022/10/16 00:55:17;;;;;;;2.95;0.70;;;;;;;12.64;100.00;95884.91;1032431;28;20021;-72
2022/10/16 00:55:47;;;;;;;1.75;0.93;;;;;;;12.66;100.00;95889.88;1032161;28;20030;-72
2022/10/16 00:56:18;;;;;;;2.40;0.57;;;;;;;12.64;100.00;95894.63;1036529;28;20041;-72
2022/10/16 00:56:48;;;;;;;1.92;1.00;;;;;;;12.66;100.00;95895.13;1028554;28;20011;-73
2022/10/16 00:57:19;;;;;;;1.70;0.77;;;;;;;12.62;100.00;95891.47;1032257;28;20152;-73
2022/10/16 00:57:49;;;;;;;1.48;0.95;;;;;;;12.61;100.00;95889.88;1024428;28;20565;-72
2022/10/16 00:58:20;;;;;;;1.15;0.63;;;;;;;12.58;100.00;95891.25;1024438;28;20042;-72
2022/10/16 00:58:50;;;;;;;2.63;1.00;;;;;;;12.48;100.00;95878.91;1032466;28;20022;-72
2022/10/16 00:59:32;;;;;;;1.88;0.85;;;;;;;12.55;100.00;95885.72;1036421;28;20033;-72
2022/10/16 01:00:05;;;;;;;1.10;0.80;;;;;;;12.57;100.00;95899.38;1040421;28;20017;-73
2022/10/16 01:00:35;;;;;;;2.17;0.65;;;;;;;12.55;100.00;95901.53;1036571;28;20018;-72
2022/10/16 01:01:06;;;;;;;2.50;0.75;;;;;;;12.55;100.00;95901.53;1027894;28;20044;-72
2022/10/16 01:01:39;;;;;;;1.95;0.95;;;;;;;12.54;100.00;95895.47;1028793;28;20421;-72
2022/10/16 01:02:12;;;;;;;1.15;0.63;;;;;;;12.53;100.00;95899.16;1031496;28;20073;-72
2022/10/16 01:02:42;;;;;;;1.05;0.77;;;;;;;12.50;100.00;95905.72;1029079;28;20596;-72
2022/10/16 01:03:30;;;;;;;1.02;0.80;;;;;;;12.48;100.00;95897.34;1033228;28;20053;-72
2022/10/16 01:04:00;;;;;;;1.45;0.88;;;;;;;12.48;100.00;95901.81;1028427;28;20033;-73
2022/10/16 01:04:39;;;;;;;0.98;0.80;;;;;;;12.47;100.00;95901.03;1030609;28;20031;-72
2022/10/16 01:05:10;;;;;;;0.75;0.68;;;;;;;12.46;100.00;95904.69;1033124;28;20022;-72
2022/10/16 01:05:45;;;;;;;2.15;1.00;;;;;;;12.45;100.00;95900.50;1037793;28;20049;-72
2022/10/16 01:06:36;;;;;;;2.85;0.77;;;;;;;12.46;100.00;95909.97;1028373;28;20022;-70
2022/10/16 01:07:07;;;;;;;0.82;0.70;;;;;;;12.47;100.00;95902.84;1031566;28;20033;-72
2022/10/16 01:07:57;;;;;;;1.15;0.73;;;;;;;12.46;100.00;95899.44;1031988;28;20025;-72
2022/10/16 01:08:38;;;;;;;1.00;0.63;;;;;;;12.43;100.00;95899.97;1040632;28;20025;-73
2022/10/16 01:09:26;;;;;;;3.08;0.90;;;;;;;12.43;100.00;95913.13;1028268;28;20054;-72
2022/10/16 01:10:09;;;;;;;1.20;1.00;;;;;;;12.44;100.00;95900.75;1032279;28;20042;-72
2022/10/16 01:10:43;;;;;;;1.05;0.65;;;;;;;12.44;100.00;95904.19;1039778;28;20063;-72
2022/10/16 01:11:19;;;;;;;1.80;1.05;;;;;;;12.42;100.00;95895.78;1036084;28;20038;-72
2022/10/16 01:12:08;;;;;;;0.82;0.80;;;;;;;12.43;100.00;95901.81;1032008;28;20040;-72
2022/10/16 01:12:54;;;;;;;3.03;0.85;;;;;;;12.38;100.00;95892.13;1032300;28;20026;-71
2022/10/16 01:13:29;;;;;;;0.65;0.60;;;;;;;12.42;100.00;95901.03;1028486;28;20624;-72
2022/10/16 01:14:02;;;;;;;1.38;0.75;;;;;;;12.43;100.00;95892.09;1032086;28;20019;-72
2022/10/16 01:14:59;;;;;;;1.50;0.90;;;;;;;12.43;100.00;95889.44;1032189;28;20109;-72
2022/10/16 01:15:31;;;;;;;3.15;0.90;;;;;;;12.46;100.00;95877.59;1027612;28;20027;-72
2022/10/16 01:16:06;;;;;;;1.17;0.77;;;;;;;12.46;100.00;95883.66;1031974;28;20270;-71
2022/10/16 01:16:48;;;;;;;1.90;0.73;;;;;;;12.46;100.00;95891.53;1024133;29;20554;-72
2022/10/16 01:17:41;;;;;;;1.75;0.80;;;;;;;12.46;100.00;95888.91;1028060;28;20041;-71
2022/10/16 01:18:16;;;;;;;1.27;0.82;;;;;;;12.46;100.00;95886.28;1028919;28;20034;-73
2022/10/16 01:18:54;;;;;;;1.98;0.90;;;;;;;12.48;100.00;95883.41;1028846;28;20031;-72
2022/10/16 01:19:41;;;;;;;0.80;0.65;;;;;;;12.49;100.00;95883.09;1024142;28;20430;-72
2022/10/16 01:20:14;;;;;;;1.98;0.80;;;;;;;12.45;100.00;95876.81;1028012;28;20138;-72
2022/10/16 01:20:53;;;;;;;2.22;0.73;;;;;;;12.48;100.00;95881.53;1031964;28;20018;-71
2022/10/16 01:21:29;;;;;;;1.35;0.80;;;;;;;12.45;100.00;95876.03;1027238;28;20031;-72
2022/10/16 01:22:00;;;;;;;1.58;0.90;;;;;;;12.47;100.00;95881.78;1024477;29;20047;-72
2022/10/16 01:22:38;;;;;;;0.85;0.82;;;;;;;12.32;100.00;95855.56;1024480;28;20778;-72
2022/10/16 01:23:24;;;;;;;0.82;0.63;;;;;;;12.47;100.00;95884.44;1027292;28;20030;-73
2022/10/16 01:24:18;;;;;;;1.00;0.88;;;;;;;12.47;100.00;95879.16;1035220;28;20100;-71
2022/10/16 01:24:49;;;;;;;1.70;1.10;;;;;;;12.48;100.00;95875.50;1033180;28;20044;-72
2022/10/16 01:25:25;;;;;;;1.48;0.77;;;;;;;12.50;100.00;95878.63;1031828;28;20265;-71
2022/10/16 01:26:08;;;;;;;1.13;0.73;;;;;;;12.52;100.00;95873.09;1024310;29;20037;-72
2022/10/16 01:27:03;;;;;;;1.98;1.05;;;;;;;12.50;100.00;95883.91;1027947;28;20030;-72
2022/10/16 01:27:33;;;;;;;2.20;0.85;;;;;;;12.39;100.00;95867.38;1031680;28;20058;-71
2022/10/16 01:28:04;;;;;;;1.08;1.00;;;;;;;12.52;100.00;95881.00;1032392;28;20026;-71
2022/10/16 01:28:55;;;;;;;0.98;0.68;;;;;;;12.50;100.00;95874.16;1032506;28;20498;-71
2022/10/16 01:29:50;;;;;;;0.95;0.70;;;;;;;12.54;100.00;95882.31;1028142;28;20118;-71
2022/10/16 01:30:26;;;;;;;1.25;0.98;;;;;;;12.55;100.00;95880.47;1020146;28;20110;-72
2022/10/16 01:30:58;;;;;;;1.80;0.85;;;;;;;12.54;100.00;95879.69;1032140;28;20622;-73
2022/10/16 01:31:30;;;;;;;1.33;0.70;;;;;;;12.53;100.00;95872.03;1032611;28;20022;-72
2022/10/16 01:32:05;;;;;;;1.33;0.90;;;;;;;12.53;100.00;95872.81;1028185;28;20026;-72
2022/10/16 01:32:42;;;;;;;1.67;0.93;;;;;;;12.54;100.00;95873.59;1030218;28;20030;-72
2022/10/16 01:33:19;;;;;;;1.35;0.95;;;;;;;12.55;100.00;95872.56;1032578;28;20339;-72
2022/10/16 01:33:57;;;;;;;1.05;0.77;;;;;;;12.51;100.00;95864.44;1032514;28;20594;-72
2022/10/16 01:34:51;;;;;;;1.75;1.10;;;;;;;12.51;100.00;95861.81;1029716;28;20048;-72
2022/10/16 01:35:30;;;;;;;0.90;0.63;;;;;;;12.50;100.00;95860.97;1023699;29;20672;-71
2022/10/16 01:36:03;;;;;;;3.22;0.80;;;;;;;12.47;100.00;95858.94;1024312;28;21145;-72
2022/10/16 01:36:41;;;;;;;5.07;1.10;;;;;;;12.47;100.00;95860.75;1036275;28;20056;-72
2022/10/16 01:37:14;;;;;;;1.63;0.70;;;;;;;12.42;100.00;95864.19;1028288;28;20023;-72
2022/10/16 01:37:48;;;;;;;4.75;1.00;;;;;;;12.46;100.00;95867.84;1024190;28;20026;-72
2022/10/16 01:38:22;;;;;;;1.20;0.82;;;;;;;12.44;100.00;95864.72;1028496;28;20022;-71
2022/10/16 01:38:53;;;;;;;0.93;0.75;;;;;;;12.44;100.00;95869.19;1032191;28;20269;-71
2022/10/16 01:39:25;;;;;;;1.38;0.80;;;;;;;12.41;100.00;95867.91;1026303;28;20027;-71
2022/10/16 01:39:58;;;;;;;1.27;0.80;;;;;;;12.40;100.00;95863.66;1028505;28;20026;-70
2022/10/16 01:40:28;;;;;;;1.83;1.13;;;;;;;12.44;100.00;95875.25;1028388;28;20026;-72
2022/10/16 01:41:09;;;;;;;2.35;1.00;;;;;;;12.42;100.00;95872.09;1028375;28;20029;-71
2022/10/16 01:41:45;;;;;;;0.80;0.70;;;;;;;12.43;100.00;95873.66;1028076;28;20729;-71
2022/10/16 01:42:19;;;;;;;1.45;0.70;;;;;;;12.41;100.00;95867.13;1032501;28;20038;-71
2022/10/16 01:43:04;;;;;;;1.10;0.70;;;;;;;12.40;100.00;95871.56;1033036;28;20024;-72
2022/10/16 01:44:14;;;;;;;1.35;0.70;;;;;;;12.39;100.00;95872.63;1037678;28;20025;-72
2022/10/16 01:44:44;;;;;;;0.88;0.68;;;;;;;12.35;100.00;95879.50;1035385;28;20034;-71
2022/10/16 01:45:17;;;;;;;1.58;0.80;;;;;;;12.32;100.00;95881.88;1029832;28;20316;-72
2022/10/16 01:45:48;;;;;;;1.33;0.68;;;;;;;12.31;100.00;95880.28;1025349;29;20049;-72
2022/10/16 01:46:19;;;;;;;1.65;0.80;;;;;;;12.32;100.00;95885.28;1026047;28;20113;-71
2022/10/16 01:46:50;;;;;;;7.13;0.70;;;;;;;12.31;100.00;95882.91;1026220;29;20022;-72
2022/10/16 01:47:25;;;;;;;0.80;0.43;;;;;;;12.38;100.00;95892.13;1026114;28;20037;-72
2022/10/16 01:47:56;;;;;;;1.02;0.90;;;;;;;12.38;100.00;95889.47;1032222;28;20034;-72
2022/10/16 01:48:26;;;;;;;1.20;0.77;;;;;;;12.41;100.00;95893.44;1034637;28;20041;-71
2022/10/16 01:48:56;;;;;;;2.00;0.80;;;;;;;12.38;100.00;95883.44;1034245;28;20131;-71
2022/10/16 01:49:30;;;;;;;0.80;0.57;;;;;;;12.17;100.00;95851.16;1025842;28;20395;-71
2022/10/16 01:50:00;;;;;;;0.80;0.52;;;;;;;12.41;100.00;95891.59;1029609;28;20033;-71
2022/10/16 01:50:32;;;;;;;1.23;0.68;;;;;;;12.38;100.00;95886.06;1030014;28;20062;-72
2022/10/16 01:51:07;;;;;;;0.40;0.40;;;;;;;12.39;100.00;95885.78;1029824;28;20094;-72
2022/10/16 01:51:37;;;;;;;0.98;0.85;;;;;;;12.34;100.00;95877.94;1030262;28;20031;-72
2022/10/16 01:52:11;;;;;;;1.80;0.50;;;;;;;12.35;100.00;95882.13;1030413;28;20030;-72
2022/10/16 01:52:43;;;;;;;0.50;0.50;;;;;;;12.37;100.00;95887.09;1033878;28;20026;-72
2022/10/16 01:53:13;;;;;;;1.73;0.60;;;;;;;12.33;100.00;95878.97;1038173;28;20044;-72
2022/10/16 01:53:48;;;;;;;3.65;1.00;;;;;;;12.37;100.00;95884.47;1029555;28;20077;-72
2022/10/16 01:54:18;;;;;;;1.25;0.90;;;;;;;12.37;100.00;95885.25;1029836;28;20038;-72
2022/10/16 01:54:50;;;;;;;1.33;1.10;;;;;;;12.32;100.00;95882.66;1025632;28;20274;-72
2022/10/16 01:55:24;;;;;;;1.10;0.70;;;;;;;12.33;100.00;95886.88;1028842;28;20027;-70
2022/10/16 01:55:54;;;;;;;0.75;0.70;;;;;;;12.31;100.00;95875.03;1033659;28;20269;-72
2022/10/16 01:56:25;;;;;;;1.65;1.00;;;;;;;12.31;100.00;95882.91;1033390;28;20265;-72
2022/10/16 01:56:55;;;;;;;0.73;0.57;;;;;;;12.26;100.00;95878.47;1037300;28;20029;-71
2022/10/16 01:57:26;;;;;;;0.80;0.70;;;;;;;12.28;100.00;95881.63;1033494;28;20010;-72
2022/10/16 01:57:56;;;;;;;0.90;0.70;;;;;;;12.24;100.00;95876.13;1030075;28;20041;-72
2022/10/16 01:58:27;;;;;;;0.70;0.70;;;;;;;12.22;100.00;95872.19;1033611;28;20045;-72
2022/10/16 01:59:02;;;;;;;4.22;0.68;;;;;;;12.19;100.00;95878.75;1033210;28;20025;-71
2022/10/16 01:59:35;;;;;;;1.35;0.65;;;;;;;12.10;100.00;95863.81;1033462;28;20011;-72
2022/10/16 02:00:08;;;;;;;2.72;0.88;;;;;;;12.16;100.00;95873.25;1033475;28;20047;-71
2022/10/16 02:00:44;;;;;;;1.35;0.80;;;;;;;12.14;100.00;95881.44;1033159;28;20184;-72
2022/10/16 02:01:15;;;;;;;1.95;0.85;;;;;;;12.11;100.00;95883.81;1029636;28;20042;-72
2022/10/16 02:01:48;;;;;;;4.63;0.95;;;;;;;12.09;100.00;95878.00;1025002;28;20019;-72
2022/10/16 02:02:19;;;;;;;2.83;0.80;;;;;;;11.98;100.00;95872.00;1033000;28;20029;-72
2022/10/16 02:02:51;;;;;;;2.33;0.80;;;;;;;12.03;100.00;95875.38;1037397;28;20022;-71
2022/10/16 02:03:21;;;;;;;3.25;0.73;;;;;;;11.97;100.00;95879.13;1029126;28;20458;-72
2022/10/16 02:03:53;;;;;;;0.95;0.77;;;;;;;11.96;100.00;95880.16;1029041;28;20065;-72
2022/10/16 02:04:29;;;;;;;1.73;0.80;;;;;;;11.95;100.00;95883.84;1033097;28;20030;-72
2022/10/16 02:05:06;;;;;;;1.15;0.77;;;;;;;11.92;100.00;95883.59;1037141;28;20048;-72
2022/10/16 02:05:55;;;;;;;2.60;0.77;;;;;;;11.89;100.00;95890.16;1032316;28;20050;-73
2022/10/16 02:06:25;;;;;;;4.80;0.90;;;;;;;11.86;100.00;95884.66;1036976;28;20277;-72
2022/10/16 02:06:56;;;;;;;1.92;0.80;;;;;;;11.83;100.00;95887.78;1032793;28;20601;-72
2022/10/16 02:07:26;;;;;;;1.42;1.25;;;;;;;11.77;100.00;95887.81;1028880;28;20035;-72
2022/10/16 02:07:56;;;;;;;1.58;1.10;;;;;;;11.76;100.00;95891.47;1028678;28;20094;-72
2022/10/16 02:08:28;;;;;;;1.30;0.70;;;;;;;11.55;100.00;95863.66;1029222;28;20019;-72
2022/10/16 02:08:59;;;;;;;1.98;1.10;;;;;;;11.65;100.00;95876.78;1024768;28;20110;-72
2022/10/16 02:09:30;;;;;;;1.92;1.30;;;;;;;11.67;100.00;95887.81;1029311;28;20027;-72
2022/10/16 02:10:00;;;;;;;1.20;0.82;;;;;;;11.67;100.00;95881.75;1033048;28;20030;-71
2022/10/16 02:10:31;;;;;;;2.53;0.90;;;;;;;11.66;100.00;95890.69;1033444;28;20289;-72
2022/10/16 02:11:02;;;;;;;1.42;0.80;;;;;;;11.63;100.00;95885.97;1037460;28;20608;-71
2022/10/16 02:11:33;;;;;;;1.33;0.85;;;;;;;11.56;100.00;95876.50;1037180;28;20120;-71
2022/10/16 02:12:25;;;;;;;6.55;1.20;;;;;;;11.59;100.00;95884.94;1029400;28;20031;-71
2022/10/16 02:12:59;;;;;;;1.00;0.90;;;;;;;11.61;100.00;95888.09;1028354;28;20022;-71
2022/10/16 02:13:31;;;;;;;3.00;0.90;;;;;;;11.61;100.00;95885.47;1032925;28;20033;-72
2022/10/16 02:14:03;;;;;;;2.03;1.35;;;;;;;11.61;100.00;95894.13;1028995;28;20281;-72
2022/10/16 02:14:34;;;;;;;1.10;0.85;;;;;;;11.61;100.00;95891.50;1021240;29;20083;-72
2022/10/16 02:15:05;;;;;;;11.57;1.73;;;;;;;11.56;100.00;95880.97;1022131;28;20288;-72
2022/10/16 02:15:39;;;;;;;5.00;1.83;;;;;;;11.61;100.00;95882.84;1026604;28;20034;-71
2022/10/16 02:16:09;;;;;;;3.45;0.88;;;;;;;11.62;100.00;95892.28;1024771;29;20270;-72
2022/10/16 02:16:42;;;;;;;2.28;1.00;;;;;;;11.61;100.00;95893.34;1029809;28;20023;-73
2022/10/16 02:17:14;;;;;;;3.97;1.15;;;;;;;11.60;100.00;95894.38;1033591;28;20053;-72
2022/10/16 02:17:44;;;;;;;2.75;1.05;;;;;;;11.60;100.00;95891.75;1030467;28;20038;-72
2022/10/16 02:18:15;;;;;;;4.32;1.27;;;;;;;11.60;100.00;95899.63;1034405;28;20277;-72
2022/10/16 02:18:45;;;;;;;1.40;1.10;;;;;;;11.59;100.00;95892.81;1038494;28;20057;-72
2022/10/16 02:19:17;;;;;;;1.33;1.10;;;;;;;11.60;100.00;95904.91;1038010;28;20026;-72
2022/10/16 02:19:48;;;;;;;0.95;0.73;;;;;;;11.54;100.00;95894.41;1033377;28;20595;-72
2022/10/16 02:20:20;;;;;;;1.45;0.90;;;;;;;11.59;100.00;95901.47;1025190;28;20062;-72
2022/10/16 02:20:58;;;;;;;1.85;0.82;;;;;;;11.61;100.00;95899.38;1028978;28;20274;-72
2022/10/16 02:21:32;;;;;;;7.00;1.40;;;;;;;11.62;100.00;95905.44;1029022;28;20106;-72
2022/10/16 02:22:04;;;;;;;1.80;0.90;;;;;;;11.61;100.00;95903.88;1029074;28;20757;-71
2022/10/16 02:22:43;;;;;;;1.55;1.05;;;;;;;11.62;100.00;95900.19;1032999;28;20265;-71
2022/10/16 02:23:17;;;;;;;1.83;1.13;;;;;;;11.62;100.00;95894.91;1033334;28;20261;-72
2022/10/16 02:23:57;;;;;;;0.93;0.70;;;;;;;11.60;100.00;95897.78;1030673;28;20273;-72
2022/10/16 02:24:46;;;;;;;6.57;1.10;;;;;;;11.62;100.00;95895.69;1036113;28;20260;-72
2022/10/16 02:25:22;;;;;;;0.50;0.50;;;;;;;11.64;100.00;95890.19;1036843;28;20052;-72
2022/10/16 02:25:52;;;;;;;2.10;0.90;;;;;;;11.66;100.00;95888.06;1036985;28;20261;-71
2022/10/16 02:26:29;;;;;;;0.88;0.77;;;;;;;11.67;100.00;95892.28;1022122;29;20023;-71
2022/10/16 02:27:08;;;;;;;1.42;1.08;;;;;;;11.67;100.00;95894.91;1029855;28;20034;-71
2022/10/16 02:28:15;;;;;;;2.83;0.90;;;;;;;11.67;100.00;95893.06;1032253;28;20049;-71
2022/10/16 02:28:46;;;;;;;1.55;0.98;;;;;;;11.65;100.00;95889.13;1032417;28;20246;-72
2022/10/16 02:29:20;;;;;;;2.20;0.70;;;;;;;11.65;100.00;95889.13;1030351;28;20018;-71
2022/10/16 02:29:58;;;;;;;2.28;0.80;;;;;;;11.62;100.00;95890.44;1024855;29;20274;-71
2022/10/16 02:30:31;;;;;;;1.55;0.80;;;;;;;11.64;100.00;95893.59;1028864;28;20293;-72
2022/10/16 02:31:04;;;;;;;1.38;0.75;;;;;;;11.62;100.00;95898.31;1028436;28;20818;-71
2022/10/16 02:31:35;;;;;;;1.50;0.98;;;;;;;11.61;100.00;95890.72;1028880;28;20074;-71
2022/10/16 02:32:06;;;;;;;6.00;1.13;;;;;;;11.61;100.00;95890.72;1025849;28;20270;-72
2022/10/16 02:32:37;;;;;;;1.63;0.90;;;;;;;11.59;100.00;95893.59;1024592;29;20259;-73
2022/10/16 02:33:09;;;;;;;2.28;0.70;;;;;;;11.60;100.00;95891.75;1028808;28;20094;-71
2022/10/16 02:33:40;;;;;;;2.08;1.38;;;;;;;11.59;100.00;95898.06;1032590;28;20261;-71
2022/10/16 02:34:11;;;;;;;1.38;1.00;;;;;;;11.51;100.00;95883.63;1028847;28;20270;-72
2022/10/16 02:34:42;;;;;;;2.03;1.20;;;;;;;11.53;100.00;95892.03;1024760;29;20405;-72
2022/10/16 02:35:13;;;;;;;3.53;0.93;;;;;;;11.43;100.00;95876.25;1024537;28;20027;-71
2022/10/16 02:35:44;;;;;;;2.65;0.85;;;;;;;11.53;100.00;95890.19;1027338;28;20046;-70
2022/10/16 02:36:15;;;;;;;1.10;0.60;;;;;;;11.55;100.00;95895.97;1028984;28;20027;-71
2022/10/16 02:36:45;;;;;;;3.75;0.98;;;;;;;11.56;100.00;95894.91;1033094;28;20026;-70
2022/10/16 02:37:16;;;;;;;1.38;0.88;;;;;;;11.54;100.00;95891.78;1032504;28;20026;-71
2022/10/16 02:37:48;;;;;;;1.67;1.13;;;;;;;11.44;100.00;95878.66;1039653;28;20021;-72
2022/10/16 02:38:18;;;;;;;1.00;0.80;;;;;;;11.54;100.00;95893.63;1036979;28;20257;-71